sensor_id;sensor_type;location;lat;lon;timestamp;temperature;humidity
55771;DHT22;41687;-33.234;-60.334;2023-12-14T00:00:59;23.30;99.90
55771;DHT22;41687;-33.234;-60.334;2023-12-14T00:03:27;23.20;99.90
55771;DHT22;41687;-33.234;-60.334;2023-12-14T00:05:54;23.30;99.90
55771;DHT22;41687;-33.234;-60.334;2023-12-14T00:08:22;23.20;99.90
55771;DHT22;41687;-33.234;-60.334;2023-12-14T00:10:49;23.30;99.90
55771;DHT22;41687;-33.234;-60.334;2023-12-14T00:13:17;23.30;99.90
55771;DHT22;41687;-33.234;-60.334;2023-12-14T00:15:45;23.30;99.90
55771;DHT22;41687;-33.234;-60.334;2023-12-14T00:18:12;23.30;99.90
55771;DHT22;41687;-33.234;-60.334;2023-12-14T00:20:39;23.30;99.90
55771;DHT22;41687;-33.234;-60.334;2023-12-14T00:23:07;23.10;99.90
55771;DHT22;41687;-33.234;-60.334;2023-12-14T00:25:35;23.10;99.90
55771;DHT22;41687;-33.234;-60.334;2023-12-14T00:28:02;23.20;99.90
55771;DHT22;41687;-33.234;-60.334;2023-12-14T00:30:30;23.30;99.90
55771;DHT22;41687;-33.234;-60.334;2023-12-14T00:32:58;23.20;99.90
55771;DHT22;41687;-33.234;-60.334;2023-12-14T00:35:25;23.20;99.90
55771;DHT22;41687;-33.234;-60.334;2023-12-14T00:37:53;23.30;99.90
55771;DHT22;41687;-33.234;-60.334;2023-12-14T00:40:20;23.30;99.90
55771;DHT22;41687;-33.234;-60.334;2023-12-14T00:42:48;23.30;99.90
55771;DHT22;41687;-33.234;-60.334;2023-12-14T00:45:16;23.30;99.90
55771;DHT22;41687;-33.234;-60.334;2023-12-14T00:47:43;23.20;99.90
55771;DHT22;41687;-33.234;-60.334;2023-12-14T00:50:10;23.30;99.90
55771;DHT22;41687;-33.234;-60.334;2023-12-14T00:52:39;23.30;99.90
55771;DHT22;41687;-33.234;-60.334;2023-12-14T00:55:06;23.30;99.90
55771;DHT22;41687;-33.234;-60.334;2023-12-14T00:57:34;23.20;99.90
55771;DHT22;41687;-33.234;-60.334;2023-12-14T01:00:01;23.20;99.90
55771;DHT22;41687;-33.234;-60.334;2023-12-14T01:02:30;23.20;99.90
55771;DHT22;41687;-33.234;-60.334;2023-12-14T01:04:58;23.20;99.90
55771;DHT22;41687;-33.234;-60.334;2023-12-14T01:07:26;23.20;99.90
55771;DHT22;41687;-33.234;-60.334;2023-12-14T01:09:53;23.20;99.90
55771;DHT22;41687;-33.234;-60.334;2023-12-14T01:12:21;23.20;99.90
55771;DHT22;41687;-33.234;-60.334;2023-12-14T01:14:49;23.20;99.90
55771;DHT22;41687;-33.234;-60.334;2023-12-14T01:17:17;23.20;99.90
55771;DHT22;41687;-33.234;-60.334;2023-12-14T01:19:45;23.20;99.90
55771;DHT22;41687;-33.234;-60.334;2023-12-14T01:22:12;23.20;99.90
55771;DHT22;41687;-33.234;-60.334;2023-12-14T01:24:40;23.20;99.90
55771;DHT22;41687;-33.234;-60.334;2023-12-14T01:27:07;23.20;99.90
55771;DHT22;41687;-33.234;-60.334;2023-12-14T01:29:36;23.20;99.90
55771;DHT22;41687;-33.234;-60.334;2023-12-14T01:32:04;23.30;99.90
55771;DHT22;41687;-33.234;-60.334;2023-12-14T01:34:32;23.30;99.90
55771;DHT22;41687;-33.234;-60.334;2023-12-14T01:37:00;23.40;99.90
55771;DHT22;41687;-33.234;-60.334;2023-12-14T01:39:27;23.40;99.90
55771;DHT22;41687;-33.234;-60.334;2023-12-14T01:41:55;23.40;99.90
55771;DHT22;41687;-33.234;-60.334;2023-12-14T01:44:22;23.30;99.90
55771;DHT22;41687;-33.234;-60.334;2023-12-14T01:46:50;23.30;99.90
55771;DHT22;41687;-33.234;-60.334;2023-12-14T01:49:17;23.30;99.90
55771;DHT22;41687;-33.234;-60.334;2023-12-14T01:51:45;23.40;99.90
55771;DHT22;41687;-33.234;-60.334;2023-12-14T01:54:12;23.30;99.90
55771;DHT22;41687;-33.234;-60.334;2023-12-14T01:56:40;23.20;99.90
55771;DHT22;41687;-33.234;-60.334;2023-12-14T01:59:08;23.30;99.90
55771;DHT22;41687;-33.234;-60.334;2023-12-14T02:01:43;23.20;99.90
55771;DHT22;41687;-33.234;-60.334;2023-12-14T02:04:13;23.30;99.90
55771;DHT22;41687;-33.234;-60.334;2023-12-14T02:06:41;23.20;99.90
55771;DHT22;41687;-33.234;-60.334;2023-12-14T02:09:09;23.20;99.90
55771;DHT22;41687;-33.234;-60.334;2023-12-14T02:11:37;23.20;99.90
55771;DHT22;41687;-33.234;-60.334;2023-12-14T02:14:09;23.20;99.90
55771;DHT22;41687;-33.234;-60.334;2023-12-14T02:16:37;23.20;99.90
55771;DHT22;41687;-33.234;-60.334;2023-12-14T02:19:08;23.20;99.90
55771;DHT22;41687;-33.234;-60.334;2023-12-14T02:21:35;23.10;99.90
55771;DHT22;41687;-33.234;-60.334;2023-12-14T02:24:03;23.20;99.90
55771;DHT22;41687;-33.234;-60.334;2023-12-14T02:26:31;23.20;99.90
55771;DHT22;41687;-33.234;-60.334;2023-12-14T02:28:58;23.10;99.90
55771;DHT22;41687;-33.234;-60.334;2023-12-14T02:31:25;23.20;99.90
55771;DHT22;41687;-33.234;-60.334;2023-12-14T02:33:53;23.20;99.90
55771;DHT22;41687;-33.234;-60.334;2023-12-14T02:36:20;23.20;99.90
55771;DHT22;41687;-33.234;-60.334;2023-12-14T02:38:48;23.20;99.90
55771;DHT22;41687;-33.234;-60.334;2023-12-14T02:41:15;23.20;99.90
55771;DHT22;41687;-33.234;-60.334;2023-12-14T02:43:43;23.20;99.90
55771;DHT22;41687;-33.234;-60.334;2023-12-14T02:46:11;23.30;99.90
55771;DHT22;41687;-33.234;-60.334;2023-12-14T02:48:42;23.30;99.90
55771;DHT22;41687;-33.234;-60.334;2023-12-14T02:51:13;23.30;99.90
55771;DHT22;41687;-33.234;-60.334;2023-12-14T02:53:44;23.30;99.90
55771;DHT22;41687;-33.234;-60.334;2023-12-14T02:56:11;23.30;99.90
55771;DHT22;41687;-33.234;-60.334;2023-12-14T02:58:39;23.30;99.90
55771;DHT22;41687;-33.234;-60.334;2023-12-14T03:01:06;23.30;99.90
55771;DHT22;41687;-33.234;-60.334;2023-12-14T03:03:37;23.30;99.90
55771;DHT22;41687;-33.234;-60.334;2023-12-14T03:06:05;23.30;99.90
55771;DHT22;41687;-33.234;-60.334;2023-12-14T03:08:32;23.30;99.90
55771;DHT22;41687;-33.234;-60.334;2023-12-14T03:11:00;23.30;99.90
55771;DHT22;41687;-33.234;-60.334;2023-12-14T03:13:28;23.30;99.90
55771;DHT22;41687;-33.234;-60.334;2023-12-14T03:15:55;23.30;99.90
55771;DHT22;41687;-33.234;-60.334;2023-12-14T03:18:23;23.30;99.90
55771;DHT22;41687;-33.234;-60.334;2023-12-14T03:20:51;23.30;99.90
55771;DHT22;41687;-33.234;-60.334;2023-12-14T03:23:18;23.20;99.90
55771;DHT22;41687;-33.234;-60.334;2023-12-14T03:25:46;23.20;99.90
55771;DHT22;41687;-33.234;-60.334;2023-12-14T03:28:13;23.20;99.90
55771;DHT22;41687;-33.234;-60.334;2023-12-14T03:30:41;23.20;99.90
55771;DHT22;41687;-33.234;-60.334;2023-12-14T03:33:08;23.20;99.90
55771;DHT22;41687;-33.234;-60.334;2023-12-14T03:35:36;23.10;99.90
55771;DHT22;41687;-33.234;-60.334;2023-12-14T03:38:04;23.10;99.90
55771;DHT22;41687;-33.234;-60.334;2023-12-14T03:40:32;23.00;99.90
55771;DHT22;41687;-33.234;-60.334;2023-12-14T03:42:59;23.00;99.90
55771;DHT22;41687;-33.234;-60.334;2023-12-14T03:45:27;23.00;99.90
55771;DHT22;41687;-33.234;-60.334;2023-12-14T03:47:55;22.90;99.90
55771;DHT22;41687;-33.234;-60.334;2023-12-14T03:50:23;22.90;99.90
55771;DHT22;41687;-33.234;-60.334;2023-12-14T03:52:51;22.90;99.90
55771;DHT22;41687;-33.234;-60.334;2023-12-14T03:55:19;22.90;99.90
55771;DHT22;41687;-33.234;-60.334;2023-12-14T03:57:46;22.90;99.90
55771;DHT22;41687;-33.234;-60.334;2023-12-14T04:00:14;22.80;99.90
55771;DHT22;41687;-33.234;-60.334;2023-12-14T04:02:42;22.80;99.90
55771;DHT22;41687;-33.234;-60.334;2023-12-14T04:05:10;22.80;99.90
55771;DHT22;41687;-33.234;-60.334;2023-12-14T04:07:38;22.80;99.90
55771;DHT22;41687;-33.234;-60.334;2023-12-14T04:10:08;22.80;99.90
55771;DHT22;41687;-33.234;-60.334;2023-12-14T04:12:36;22.80;99.90
55771;DHT22;41687;-33.234;-60.334;2023-12-14T04:15:05;22.80;99.90
55771;DHT22;41687;-33.234;-60.334;2023-12-14T04:17:33;22.80;99.90
55771;DHT22;41687;-33.234;-60.334;2023-12-14T04:20:00;22.80;99.90
55771;DHT22;41687;-33.234;-60.334;2023-12-14T04:22:28;22.80;99.90
55771;DHT22;41687;-33.234;-60.334;2023-12-14T04:24:56;22.80;99.90
55771;DHT22;41687;-33.234;-60.334;2023-12-14T04:27:24;22.80;99.90
55771;DHT22;41687;-33.234;-60.334;2023-12-14T04:29:55;22.70;99.90
55771;DHT22;41687;-33.234;-60.334;2023-12-14T04:32:23;22.70;99.90
55771;DHT22;41687;-33.234;-60.334;2023-12-14T04:34:50;22.70;99.90
55771;DHT22;41687;-33.234;-60.334;2023-12-14T04:37:17;22.70;99.90
55771;DHT22;41687;-33.234;-60.334;2023-12-14T04:39:45;22.70;99.90
55771;DHT22;41687;-33.234;-60.334;2023-12-14T04:42:13;22.70;99.90
55771;DHT22;41687;-33.234;-60.334;2023-12-14T04:44:40;22.60;99.90
55771;DHT22;41687;-33.234;-60.334;2023-12-14T04:47:08;22.50;99.90
55771;DHT22;41687;-33.234;-60.334;2023-12-14T04:49:35;22.40;99.90
55771;DHT22;41687;-33.234;-60.334;2023-12-14T04:52:03;22.40;99.90
55771;DHT22;41687;-33.234;-60.334;2023-12-14T04:54:32;22.40;99.90
55771;DHT22;41687;-33.234;-60.334;2023-12-14T04:57:00;22.40;99.90
55771;DHT22;41687;-33.234;-60.334;2023-12-14T04:59:27;22.30;99.90
55771;DHT22;41687;-33.234;-60.334;2023-12-14T05:01:55;22.20;99.90
55771;DHT22;41687;-33.234;-60.334;2023-12-14T05:04:24;22.30;99.90
55771;DHT22;41687;-33.234;-60.334;2023-12-14T05:06:51;22.20;99.90
55771;DHT22;41687;-33.234;-60.334;2023-12-14T05:09:19;22.20;99.90
55771;DHT22;41687;-33.234;-60.334;2023-12-14T05:11:47;22.20;99.90
55771;DHT22;41687;-33.234;-60.334;2023-12-14T05:14:14;22.10;99.90
55771;DHT22;41687;-33.234;-60.334;2023-12-14T05:16:42;22.10;99.90
55771;DHT22;41687;-33.234;-60.334;2023-12-14T05:19:10;22.10;99.90
55771;DHT22;41687;-33.234;-60.334;2023-12-14T05:21:37;22.10;99.90
55771;DHT22;41687;-33.234;-60.334;2023-12-14T05:24:05;22.10;99.90
55771;DHT22;41687;-33.234;-60.334;2023-12-14T05:26:32;22.10;99.90
55771;DHT22;41687;-33.234;-60.334;2023-12-14T05:29:00;22.00;99.90
55771;DHT22;41687;-33.234;-60.334;2023-12-14T05:31:28;22.10;99.90
55771;DHT22;41687;-33.234;-60.334;2023-12-14T05:33:55;22.00;99.90
55771;DHT22;41687;-33.234;-60.334;2023-12-14T05:36:22;22.00;99.90
55771;DHT22;41687;-33.234;-60.334;2023-12-14T05:38:50;22.00;99.90
55771;DHT22;41687;-33.234;-60.334;2023-12-14T05:41:18;22.00;99.90
55771;DHT22;41687;-33.234;-60.334;2023-12-14T05:43:45;22.00;99.90
55771;DHT22;41687;-33.234;-60.334;2023-12-14T05:46:23;22.00;99.90
55771;DHT22;41687;-33.234;-60.334;2023-12-14T05:48:51;21.90;99.90
55771;DHT22;41687;-33.234;-60.334;2023-12-14T05:51:32;21.90;99.90
55771;DHT22;41687;-33.234;-60.334;2023-12-14T05:54:00;21.90;99.90
55771;DHT22;41687;-33.234;-60.334;2023-12-14T05:56:28;22.00;99.90
55771;DHT22;41687;-33.234;-60.334;2023-12-14T05:58:56;22.00;99.90
55771;DHT22;41687;-33.234;-60.334;2023-12-14T06:01:24;21.90;99.90
55771;DHT22;41687;-33.234;-60.334;2023-12-14T06:03:52;21.90;99.90
55771;DHT22;41687;-33.234;-60.334;2023-12-14T06:06:20;21.90;99.90
55771;DHT22;41687;-33.234;-60.334;2023-12-14T06:08:48;21.90;99.90
55771;DHT22;41687;-33.234;-60.334;2023-12-14T06:11:16;21.90;99.90
55771;DHT22;41687;-33.234;-60.334;2023-12-14T06:13:44;21.90;99.90
55771;DHT22;41687;-33.234;-60.334;2023-12-14T06:16:11;21.90;99.90
55771;DHT22;41687;-33.234;-60.334;2023-12-14T06:18:40;22.00;99.90
55771;DHT22;41687;-33.234;-60.334;2023-12-14T06:21:14;22.00;99.90
55771;DHT22;41687;-33.234;-60.334;2023-12-14T06:23:41;21.90;99.90
55771;DHT22;41687;-33.234;-60.334;2023-12-14T06:26:09;21.90;99.90
55771;DHT22;41687;-33.234;-60.334;2023-12-14T06:28:37;21.90;99.90
55771;DHT22;41687;-33.234;-60.334;2023-12-14T06:31:04;21.90;99.90
55771;DHT22;41687;-33.234;-60.334;2023-12-14T06:33:32;21.90;99.90
55771;DHT22;41687;-33.234;-60.334;2023-12-14T06:36:03;21.90;99.90
55771;DHT22;41687;-33.234;-60.334;2023-12-14T06:38:32;21.90;99.90
55771;DHT22;41687;-33.234;-60.334;2023-12-14T06:41:00;21.90;99.90
55771;DHT22;41687;-33.234;-60.334;2023-12-14T06:43:29;22.00;99.90
55771;DHT22;41687;-33.234;-60.334;2023-12-14T06:45:56;22.00;99.90
55771;DHT22;41687;-33.234;-60.334;2023-12-14T06:48:23;22.00;99.90
55771;DHT22;41687;-33.234;-60.334;2023-12-14T06:50:51;22.10;99.90
55771;DHT22;41687;-33.234;-60.334;2023-12-14T06:53:22;22.10;99.90
55771;DHT22;41687;-33.234;-60.334;2023-12-14T06:55:49;22.10;99.90
55771;DHT22;41687;-33.234;-60.334;2023-12-14T06:58:17;22.10;99.90
55771;DHT22;41687;-33.234;-60.334;2023-12-14T07:00:45;22.10;99.90
55771;DHT22;41687;-33.234;-60.334;2023-12-14T07:03:14;22.10;99.90
55771;DHT22;41687;-33.234;-60.334;2023-12-14T07:05:45;22.10;99.90
55771;DHT22;41687;-33.234;-60.334;2023-12-14T07:08:13;22.10;99.90
55771;DHT22;41687;-33.234;-60.334;2023-12-14T07:10:42;22.00;99.90
55771;DHT22;41687;-33.234;-60.334;2023-12-14T07:13:09;22.00;99.90
55771;DHT22;41687;-33.234;-60.334;2023-12-14T07:15:37;22.00;99.90
55771;DHT22;41687;-33.234;-60.334;2023-12-14T07:18:05;22.00;99.90
55771;DHT22;41687;-33.234;-60.334;2023-12-14T07:20:32;22.10;99.90
55771;DHT22;41687;-33.234;-60.334;2023-12-14T07:23:00;22.10;99.90
55771;DHT22;41687;-33.234;-60.334;2023-12-14T07:25:27;22.00;99.90
55771;DHT22;41687;-33.234;-60.334;2023-12-14T07:27:54;22.00;99.90
55771;DHT22;41687;-33.234;-60.334;2023-12-14T07:30:22;22.00;99.90
55771;DHT22;41687;-33.234;-60.334;2023-12-14T07:32:50;22.00;99.90
55771;DHT22;41687;-33.234;-60.334;2023-12-14T07:35:17;22.00;99.90
55771;DHT22;41687;-33.234;-60.334;2023-12-14T07:37:45;22.00;99.90
55771;DHT22;41687;-33.234;-60.334;2023-12-14T07:40:12;22.10;99.90
55771;DHT22;41687;-33.234;-60.334;2023-12-14T07:42:40;22.10;99.90
55771;DHT22;41687;-33.234;-60.334;2023-12-14T07:45:08;22.00;99.90
55771;DHT22;41687;-33.234;-60.334;2023-12-14T07:47:36;22.10;99.90
55771;DHT22;41687;-33.234;-60.334;2023-12-14T07:50:04;22.10;99.90
55771;DHT22;41687;-33.234;-60.334;2023-12-14T07:52:32;22.10;99.90
55771;DHT22;41687;-33.234;-60.334;2023-12-14T07:54:59;22.00;99.90
55771;DHT22;41687;-33.234;-60.334;2023-12-14T07:57:27;22.10;99.90
55771;DHT22;41687;-33.234;-60.334;2023-12-14T07:59:54;22.10;99.90
55771;DHT22;41687;-33.234;-60.334;2023-12-14T08:02:22;22.00;99.90
55771;DHT22;41687;-33.234;-60.334;2023-12-14T08:04:50;22.00;99.90
55771;DHT22;41687;-33.234;-60.334;2023-12-14T08:07:17;22.00;99.90
55771;DHT22;41687;-33.234;-60.334;2023-12-14T08:09:44;22.00;99.90
55771;DHT22;41687;-33.234;-60.334;2023-12-14T08:12:13;22.00;99.90
55771;DHT22;41687;-33.234;-60.334;2023-12-14T08:14:40;21.90;99.90
55771;DHT22;41687;-33.234;-60.334;2023-12-14T08:17:10;21.90;99.90
55771;DHT22;41687;-33.234;-60.334;2023-12-14T08:19:37;21.90;99.90
55771;DHT22;41687;-33.234;-60.334;2023-12-14T08:22:06;21.80;99.90
55771;DHT22;41687;-33.234;-60.334;2023-12-14T08:24:34;21.80;99.90
55771;DHT22;41687;-33.234;-60.334;2023-12-14T08:27:02;21.80;99.90
55771;DHT22;41687;-33.234;-60.334;2023-12-14T08:29:29;21.80;99.90
55771;DHT22;41687;-33.234;-60.334;2023-12-14T08:31:57;21.80;99.90
55771;DHT22;41687;-33.234;-60.334;2023-12-14T08:34:26;21.80;99.90
55771;DHT22;41687;-33.234;-60.334;2023-12-14T08:36:54;21.80;99.90
55771;DHT22;41687;-33.234;-60.334;2023-12-14T08:39:22;21.90;99.90
55771;DHT22;41687;-33.234;-60.334;2023-12-14T08:41:49;21.80;99.90
55771;DHT22;41687;-33.234;-60.334;2023-12-14T08:44:17;21.80;99.90
55771;DHT22;41687;-33.234;-60.334;2023-12-14T08:46:46;21.80;99.90
55771;DHT22;41687;-33.234;-60.334;2023-12-14T08:49:14;21.90;99.90
55771;DHT22;41687;-33.234;-60.334;2023-12-14T08:51:43;21.90;99.90
55771;DHT22;41687;-33.234;-60.334;2023-12-14T08:54:11;21.90;99.90
55771;DHT22;41687;-33.234;-60.334;2023-12-14T08:56:38;22.00;99.90
55771;DHT22;41687;-33.234;-60.334;2023-12-14T08:59:05;21.90;99.90
55771;DHT22;41687;-33.234;-60.334;2023-12-14T09:01:34;22.00;99.90
55771;DHT22;41687;-33.234;-60.334;2023-12-14T09:04:02;22.10;99.90
55771;DHT22;41687;-33.234;-60.334;2023-12-14T09:06:30;22.00;99.90
55771;DHT22;41687;-33.234;-60.334;2023-12-14T09:08:57;22.00;99.90
55771;DHT22;41687;-33.234;-60.334;2023-12-14T09:11:25;22.10;99.90
55771;DHT22;41687;-33.234;-60.334;2023-12-14T09:13:52;22.10;99.90
55771;DHT22;41687;-33.234;-60.334;2023-12-14T09:16:20;22.10;99.90
55771;DHT22;41687;-33.234;-60.334;2023-12-14T09:18:48;22.10;99.90
55771;DHT22;41687;-33.234;-60.334;2023-12-14T09:21:15;22.10;99.90
55771;DHT22;41687;-33.234;-60.334;2023-12-14T09:23:42;22.20;99.90
55771;DHT22;41687;-33.234;-60.334;2023-12-14T09:26:10;22.20;99.90
55771;DHT22;41687;-33.234;-60.334;2023-12-14T09:28:39;22.10;99.90
55771;DHT22;41687;-33.234;-60.334;2023-12-14T09:31:06;22.20;99.90
55771;DHT22;41687;-33.234;-60.334;2023-12-14T09:33:34;22.20;99.90
55771;DHT22;41687;-33.234;-60.334;2023-12-14T09:36:02;22.20;99.90
55771;DHT22;41687;-33.234;-60.334;2023-12-14T09:38:29;22.20;99.90
55771;DHT22;41687;-33.234;-60.334;2023-12-14T09:40:57;22.10;99.90
55771;DHT22;41687;-33.234;-60.334;2023-12-14T09:43:24;22.00;99.90
55771;DHT22;41687;-33.234;-60.334;2023-12-14T09:45:52;22.00;99.90
55771;DHT22;41687;-33.234;-60.334;2023-12-14T09:48:21;22.00;99.90
55771;DHT22;41687;-33.234;-60.334;2023-12-14T09:50:49;22.00;99.90
55771;DHT22;41687;-33.234;-60.334;2023-12-14T09:53:17;22.10;99.90
55771;DHT22;41687;-33.234;-60.334;2023-12-14T09:55:45;22.10;99.90
55771;DHT22;41687;-33.234;-60.334;2023-12-14T09:58:12;22.20;99.90
55771;DHT22;41687;-33.234;-60.334;2023-12-14T10:00:41;22.20;99.90
55771;DHT22;41687;-33.234;-60.334;2023-12-14T10:03:26;22.20;99.90
55771;DHT22;41687;-33.234;-60.334;2023-12-14T10:05:56;22.20;99.90
55771;DHT22;41687;-33.234;-60.334;2023-12-14T10:08:25;22.20;99.90
55771;DHT22;41687;-33.234;-60.334;2023-12-14T10:10:54;22.10;99.90
55771;DHT22;41687;-33.234;-60.334;2023-12-14T10:13:23;22.10;99.90
55771;DHT22;41687;-33.234;-60.334;2023-12-14T10:16:03;22.10;99.90
55771;DHT22;41687;-33.234;-60.334;2023-12-14T10:18:32;22.20;99.90
55771;DHT22;41687;-33.234;-60.334;2023-12-14T10:21:01;22.10;99.90
55771;DHT22;41687;-33.234;-60.334;2023-12-14T10:23:29;22.00;99.90
55771;DHT22;41687;-33.234;-60.334;2023-12-14T10:25:57;22.10;99.90
55771;DHT22;41687;-33.234;-60.334;2023-12-14T10:28:25;22.10;99.90
55771;DHT22;41687;-33.234;-60.334;2023-12-14T10:30:53;22.20;99.90
55771;DHT22;41687;-33.234;-60.334;2023-12-14T10:33:20;22.20;99.90
55771;DHT22;41687;-33.234;-60.334;2023-12-14T10:35:48;22.20;99.90
55771;DHT22;41687;-33.234;-60.334;2023-12-14T10:38:17;22.20;99.90
55771;DHT22;41687;-33.234;-60.334;2023-12-14T10:40:46;22.20;99.90
55771;DHT22;41687;-33.234;-60.334;2023-12-14T10:43:13;22.30;99.90
55771;DHT22;41687;-33.234;-60.334;2023-12-14T10:45:44;22.30;99.90
55771;DHT22;41687;-33.234;-60.334;2023-12-14T10:48:17;22.30;99.90
55771;DHT22;41687;-33.234;-60.334;2023-12-14T10:50:48;22.30;99.90
55771;DHT22;41687;-33.234;-60.334;2023-12-14T10:53:18;22.30;99.90
55771;DHT22;41687;-33.234;-60.334;2023-12-14T10:55:48;22.30;99.90
55771;DHT22;41687;-33.234;-60.334;2023-12-14T10:58:20;22.30;99.90
55771;DHT22;41687;-33.234;-60.334;2023-12-14T11:01:02;22.30;99.90
55771;DHT22;41687;-33.234;-60.334;2023-12-14T11:03:34;22.30;99.90
55771;DHT22;41687;-33.234;-60.334;2023-12-14T11:06:03;22.40;99.90
55771;DHT22;41687;-33.234;-60.334;2023-12-14T11:08:44;22.40;99.90
55771;DHT22;41687;-33.234;-60.334;2023-12-14T11:11:12;22.50;99.90
55771;DHT22;41687;-33.234;-60.334;2023-12-14T11:13:43;22.50;99.90
55771;DHT22;41687;-33.234;-60.334;2023-12-14T11:16:15;22.50;99.90
55771;DHT22;41687;-33.234;-60.334;2023-12-14T11:18:42;22.60;99.90
55771;DHT22;41687;-33.234;-60.334;2023-12-14T11:21:18;22.60;99.90
55771;DHT22;41687;-33.234;-60.334;2023-12-14T11:23:51;22.70;99.90
55771;DHT22;41687;-33.234;-60.334;2023-12-14T11:26:22;22.70;99.90
55771;DHT22;41687;-33.234;-60.334;2023-12-14T11:28:52;22.80;99.90
55771;DHT22;41687;-33.234;-60.334;2023-12-14T11:31:20;23.00;99.90
55771;DHT22;41687;-33.234;-60.334;2023-12-14T11:33:49;23.10;99.90
55771;DHT22;41687;-33.234;-60.334;2023-12-14T11:36:17;23.20;99.90
55771;DHT22;41687;-33.234;-60.334;2023-12-14T11:38:45;23.40;99.90
55771;DHT22;41687;-33.234;-60.334;2023-12-14T11:41:14;23.50;99.90
55771;DHT22;41687;-33.234;-60.334;2023-12-14T11:43:43;23.60;99.90
55771;DHT22;41687;-33.234;-60.334;2023-12-14T11:46:11;23.80;99.90
55771;DHT22;41687;-33.234;-60.334;2023-12-14T11:48:40;24.00;99.90
55771;DHT22;41687;-33.234;-60.334;2023-12-14T11:51:07;23.90;99.90
55771;DHT22;41687;-33.234;-60.334;2023-12-14T11:53:36;24.10;99.90
55771;DHT22;41687;-33.234;-60.334;2023-12-14T11:56:07;24.20;99.90
55771;DHT22;41687;-33.234;-60.334;2023-12-14T11:58:35;24.40;99.90
55771;DHT22;41687;-33.234;-60.334;2023-12-14T12:01:17;24.60;99.90
55771;DHT22;41687;-33.234;-60.334;2023-12-14T12:03:46;24.60;99.90
55771;DHT22;41687;-33.234;-60.334;2023-12-14T12:06:24;24.60;99.90
55771;DHT22;41687;-33.234;-60.334;2023-12-14T12:08:54;24.70;99.90
55771;DHT22;41687;-33.234;-60.334;2023-12-14T12:11:23;24.60;99.90
55771;DHT22;41687;-33.234;-60.334;2023-12-14T12:13:53;24.40;99.90
55771;DHT22;41687;-33.234;-60.334;2023-12-14T12:16:21;24.50;99.90
55771;DHT22;41687;-33.234;-60.334;2023-12-14T12:18:49;24.60;99.90
55771;DHT22;41687;-33.234;-60.334;2023-12-14T12:21:19;24.80;99.90
55771;DHT22;41687;-33.234;-60.334;2023-12-14T12:23:47;24.90;99.90
55771;DHT22;41687;-33.234;-60.334;2023-12-14T12:26:15;24.70;99.90
55771;DHT22;41687;-33.234;-60.334;2023-12-14T12:28:42;24.80;99.90
55771;DHT22;41687;-33.234;-60.334;2023-12-14T12:31:10;24.90;99.90
55771;DHT22;41687;-33.234;-60.334;2023-12-14T12:33:38;25.20;99.90
55771;DHT22;41687;-33.234;-60.334;2023-12-14T12:36:06;25.50;99.50
55771;DHT22;41687;-33.234;-60.334;2023-12-14T12:38:34;25.60;97.80
55771;DHT22;41687;-33.234;-60.334;2023-12-14T12:41:01;25.60;97.70
55771;DHT22;41687;-33.234;-60.334;2023-12-14T12:43:28;25.80;97.90
55771;DHT22;41687;-33.234;-60.334;2023-12-14T12:45:56;25.80;96.00
55771;DHT22;41687;-33.234;-60.334;2023-12-14T12:48:25;25.70;96.00
55771;DHT22;41687;-33.234;-60.334;2023-12-14T12:50:52;25.60;97.40
55771;DHT22;41687;-33.234;-60.334;2023-12-14T12:53:20;25.40;96.70
55771;DHT22;41687;-33.234;-60.334;2023-12-14T12:55:48;24.90;96.90
55771;DHT22;41687;-33.234;-60.334;2023-12-14T12:58:15;24.90;98.60
55771;DHT22;41687;-33.234;-60.334;2023-12-14T13:00:43;24.90;99.90
55771;DHT22;41687;-33.234;-60.334;2023-12-14T13:03:10;25.10;99.80
55771;DHT22;41687;-33.234;-60.334;2023-12-14T13:05:38;25.00;98.50
55771;DHT22;41687;-33.234;-60.334;2023-12-14T13:08:06;24.80;99.90
55771;DHT22;41687;-33.234;-60.334;2023-12-14T13:10:34;24.60;99.80
55771;DHT22;41687;-33.234;-60.334;2023-12-14T13:13:01;24.20;99.90
55771;DHT22;41687;-33.234;-60.334;2023-12-14T13:15:29;23.80;99.90
55771;DHT22;41687;-33.234;-60.334;2023-12-14T13:17:57;23.50;99.90
55771;DHT22;41687;-33.234;-60.334;2023-12-14T13:20:26;23.30;99.90
55771;DHT22;41687;-33.234;-60.334;2023-12-14T13:22:53;23.30;99.90
55771;DHT22;41687;-33.234;-60.334;2023-12-14T13:25:21;23.30;99.90
55771;DHT22;41687;-33.234;-60.334;2023-12-14T13:27:53;23.20;99.90
55771;DHT22;41687;-33.234;-60.334;2023-12-14T13:30:21;23.20;99.90
55771;DHT22;41687;-33.234;-60.334;2023-12-14T13:32:50;23.10;99.90
55771;DHT22;41687;-33.234;-60.334;2023-12-14T13:35:17;23.10;99.90
55771;DHT22;41687;-33.234;-60.334;2023-12-14T13:37:45;23.00;99.90
55771;DHT22;41687;-33.234;-60.334;2023-12-14T13:40:13;22.90;99.90
55771;DHT22;41687;-33.234;-60.334;2023-12-14T13:42:40;22.90;99.90
55771;DHT22;41687;-33.234;-60.334;2023-12-14T13:45:08;22.80;99.90
55771;DHT22;41687;-33.234;-60.334;2023-12-14T13:47:36;22.90;99.90
55771;DHT22;41687;-33.234;-60.334;2023-12-14T13:50:04;23.00;99.90
55771;DHT22;41687;-33.234;-60.334;2023-12-14T13:52:32;23.10;99.90
55771;DHT22;41687;-33.234;-60.334;2023-12-14T13:55:00;23.20;99.90
55771;DHT22;41687;-33.234;-60.334;2023-12-14T13:57:27;23.30;99.90
55771;DHT22;41687;-33.234;-60.334;2023-12-14T13:59:55;23.20;99.90
55771;DHT22;41687;-33.234;-60.334;2023-12-14T14:02:23;23.00;99.90
55771;DHT22;41687;-33.234;-60.334;2023-12-14T14:04:54;23.00;99.90
55771;DHT22;41687;-33.234;-60.334;2023-12-14T14:07:22;23.00;99.90
55771;DHT22;41687;-33.234;-60.334;2023-12-14T14:09:49;23.00;99.90
55771;DHT22;41687;-33.234;-60.334;2023-12-14T14:12:17;23.10;99.90
55771;DHT22;41687;-33.234;-60.334;2023-12-14T14:14:45;23.00;99.90
55771;DHT22;41687;-33.234;-60.334;2023-12-14T14:17:12;23.00;99.90
55771;DHT22;41687;-33.234;-60.334;2023-12-14T14:19:40;23.00;99.90
55771;DHT22;41687;-33.234;-60.334;2023-12-14T14:22:07;23.00;99.90
55771;DHT22;41687;-33.234;-60.334;2023-12-14T14:24:35;23.00;99.90
55771;DHT22;41687;-33.234;-60.334;2023-12-14T14:27:03;22.90;99.90
55771;DHT22;41687;-33.234;-60.334;2023-12-14T14:29:31;23.00;99.90
55771;DHT22;41687;-33.234;-60.334;2023-12-14T14:31:58;23.00;99.90
55771;DHT22;41687;-33.234;-60.334;2023-12-14T14:34:26;23.00;99.90
55771;DHT22;41687;-33.234;-60.334;2023-12-14T14:36:53;22.80;99.90
55771;DHT22;41687;-33.234;-60.334;2023-12-14T14:39:21;22.90;99.90
55771;DHT22;41687;-33.234;-60.334;2023-12-14T14:41:48;22.90;99.90
55771;DHT22;41687;-33.234;-60.334;2023-12-14T14:44:16;23.00;99.90
55771;DHT22;41687;-33.234;-60.334;2023-12-14T14:46:44;23.20;99.90
55771;DHT22;41687;-33.234;-60.334;2023-12-14T14:49:11;23.20;99.90
55771;DHT22;41687;-33.234;-60.334;2023-12-14T14:51:39;23.30;99.90
55771;DHT22;41687;-33.234;-60.334;2023-12-14T14:54:07;23.50;99.90